createdAt,value
2018-06-25T09:51:22.056Z,6.83
2018-06-25T09:53:55.214Z,6.30
2018-06-25T10:12:36.777Z,6.40
2018-06-25T10:23:25.862Z,7.83
2018-06-25T10:29:26.260Z,7.27
2018-06-25T10:32:00.918Z,6.33
2018-06-25T10:34:29.498Z,7.07
2018-06-25T10:36:58.574Z,6.53
2018-06-25T10:39:29.571Z,6.50
2018-06-25T10:42:00.678Z,6.60
2018-06-25T10:44:29.767Z,5.40
2018-06-25T10:46:58.805Z,5.37
2018-06-25T10:49:27.643Z,6.30
2018-06-25T10:51:57.382Z,5.60
2018-06-25T10:54:26.263Z,6.77
2018-06-25T10:56:55.636Z,6.67
2018-06-25T10:59:24.652Z,6.27
2018-06-25T11:01:53.371Z,7.07
2018-06-25T11:04:21.888Z,6.40
2018-06-25T11:06:52.906Z,6.00
2018-06-25T11:09:22.678Z,6.10
2018-06-25T11:11:50.864Z,6.63
2018-06-25T11:14:19.559Z,5.40
2018-06-25T11:16:49.174Z,5.67
2018-06-25T11:19:17.758Z,6.63
2018-06-25T11:21:47.132Z,6.03
2018-06-25T11:24:15.790Z,5.57
2018-06-25T11:26:44.604Z,5.30
2018-06-25T11:29:16.730Z,4.60
2018-06-25T11:31:45.926Z,5.73
2018-06-25T11:34:14.641Z,5.17
2018-06-25T11:36:44.140Z,5.20
2018-06-25T11:39:14.981Z,5.10
2018-06-25T11:41:44.025Z,4.57
2018-06-25T11:44:12.888Z,4.17
2018-06-25T11:46:41.415Z,4.97
2018-06-25T11:49:10.264Z,4.70
2018-06-25T11:51:39.095Z,5.60
2018-06-25T11:54:08.392Z,4.73
2018-06-25T11:56:38.423Z,5.50
2018-06-25T11:59:08.301Z,4.80
2018-06-25T12:01:37.741Z,4.13
2018-06-25T12:04:07.637Z,4.87
2018-06-25T12:06:40.309Z,3.60
2018-06-25T12:09:17.724Z,3.03
2018-06-25T12:11:47.055Z,4.37
2018-06-25T12:14:16.807Z,4.17
2018-06-25T12:16:48.856Z,4.13
2018-06-25T12:19:17.537Z,4.70
2018-06-25T12:22:03.007Z,4.03
2018-06-25T12:24:35.039Z,4.70
2018-06-25T12:27:07.173Z,5.40
2018-06-25T12:29:36.531Z,4.10
2018-06-25T12:32:06.823Z,4.40
2018-06-25T12:34:35.531Z,4.97
2018-06-25T12:37:04.270Z,4.33
2018-06-25T12:39:32.867Z,4.27
2018-06-25T12:42:01.985Z,4.60
2018-06-25T12:44:30.940Z,3.40
2018-06-25T12:46:59.580Z,3.80
2018-06-25T12:49:29.568Z,3.97
2018-06-25T12:51:58.451Z,4.30
2018-06-25T12:54:28.051Z,3.57
2018-06-25T12:56:57.024Z,3.60
2018-06-25T12:59:25.830Z,3.47
2018-06-25T13:04:48.889Z,3.97
2018-06-25T13:07:17.277Z,4.70
2018-06-25T13:09:45.911Z,4.27
2018-06-25T13:12:14.582Z,3.70
2018-06-25T13:14:43.192Z,3.90
2018-06-25T13:17:12.341Z,4.20
2018-06-25T13:19:40.727Z,3.47
2018-06-25T13:22:09.693Z,3.90
2018-06-25T13:24:38.393Z,3.37
2018-06-25T13:27:07.194Z,4.37
2018-06-25T13:29:35.646Z,3.53
2018-06-25T13:32:04.483Z,3.50
2018-06-25T13:34:33.886Z,3.80
2018-06-25T13:37:02.685Z,3.37
2018-06-25T13:39:31.897Z,3.80
2018-06-25T13:42:06.530Z,3.17
2018-06-25T13:51:17.088Z,3.70
2018-06-25T13:54:00.971Z,3.40
2018-06-25T13:56:30.088Z,4.30
2018-06-25T13:59:25.329Z,3.90
2018-06-25T14:01:54.510Z,4.90
2018-06-25T14:08:22.369Z,3.50
2018-06-25T14:10:50.998Z,3.97
2018-06-25T14:14:36.114Z,3.20
2018-06-25T14:28:30.453Z,3.20
2018-06-25T14:34:24.255Z,3.63
2018-06-25T14:38:05.538Z,3.03
2018-06-25T14:52:41.590Z,3.33
2018-06-25T15:23:39.135Z,3.73
2018-06-25T16:22:04.528Z,3.63
2018-06-25T16:28:05.433Z,3.27
2018-06-25T16:30:34.972Z,3.90
2018-06-25T16:33:04.715Z,4.20
2018-06-25T16:48:03.438Z,3.77
2018-06-25T17:07:39.171Z,3.80
2018-06-25T17:10:14.879Z,3.20
2018-06-25T17:22:56.358Z,3.23
2018-06-25T17:38:02.911Z,3.90
